Time;durP1;ratioP1;P1;durP2;ratioP2;P2;SDS_P1;SDS_P2;PMS_P1;PMS_P2;Temp;Humidity;BMP_temperature;BMP_pressure;BME280_temperature;BME280_humidity;BME280_pressure;Samples;Min_cycle;Max_cycle;Signal;HPM_P1;HPM_P2
2024/02/02 00:02:02;;;;;;;;;0.00;0.00;;;;;8.49;100.00;103274.81;5039731;28;55309;-85
2024/02/02 00:04:28;;;;;;;;;0.00;0.00;;;;;8.46;100.00;103265.22;5056658;28;50782;-85
2024/02/02 00:06:53;;;;;;;;;0.00;0.00;;;;;8.47;100.00;103264.38;5057740;28;47037;-85
2024/02/02 00:09:19;;;;;;;;;0.00;0.00;;;;;8.45;100.00;103260.88;5055310;28;53754;-85
2024/02/02 00:11:45;;;;;;;;;0.00;0.00;;;;;8.43;100.00;103259.97;5057048;28;45490;-85
2024/02/02 00:14:10;;;;;;;;;0.00;0.00;;;;;8.40;100.00;103256.41;5058356;28;45371;-86
2024/02/02 00:16:35;;;;;;;;;0.00;0.00;;;;;8.40;100.00;103269.38;5057529;28;50513;-84
2024/02/02 00:19:02;;;;;;;;;0.00;0.00;;;;;8.38;100.00;103271.94;5057993;28;45409;-85
2024/02/02 00:21:27;;;;;;;;;0.00;0.00;;;;;8.38;100.00;103263.28;5039684;28;45435;-85
2024/02/02 00:23:52;;;;;;;;;0.00;0.00;;;;;8.34;100.00;103265.81;5056540;28;45854;-86
2024/02/02 00:26:18;;;;;;;;;0.00;0.00;;;;;8.28;100.00;103263.09;5055444;28;46494;-86
2024/02/02 00:28:43;;;;;;;;;0.00;0.00;;;;;8.30;100.00;103265.69;5055959;28;66897;-85
2024/02/02 00:31:08;;;;;;;;;0.00;0.00;;;;;8.29;100.00;103275.22;5056442;28;50599;-85
2024/02/02 00:33:34;;;;;;;;;0.00;0.00;;;;;8.26;100.00;103274.28;5056756;28;45381;-85
2024/02/02 00:35:59;;;;;;;;;0.00;0.00;;;;;8.25;100.00;103283.78;5056012;28;49427;-85
2024/02/02 00:38:24;;;;;;;;;0.00;0.00;;;;;8.24;100.00;103278.56;5039757;28;45373;-85
2024/02/02 00:40:50;;;;;;;;;0.00;0.00;;;;;8.21;100.00;103276.78;5057769;28;45309;-86
2024/02/02 00:43:15;;;;;;;;;0.00;0.00;;;;;8.16;100.00;103273.19;5055629;28;45461;-85
2024/02/02 00:45:40;;;;;;;;;0.00;0.00;;;;;8.15;100.00;103276.63;5056235;28;46324;-86
2024/02/02 00:48:06;;;;;;;;;0.00;0.00;;;;;8.14;100.00;103277.50;5055752;28;57765;-85
2024/02/02 00:50:32;;;;;;;;;0.00;0.00;;;;;8.06;100.00;103266.94;5055591;28;45493;-85
2024/02/02 00:52:58;;;;;;;;;0.00;0.00;;;;;8.05;100.00;103272.97;5038921;28;59068;-86
2024/02/02 00:55:23;;;;;;;;;0.00;0.00;;;;;8.01;100.00;103262.50;5055473;28;66605;-85
2024/02/02 00:57:49;;;;;;;;;0.00;0.00;;;;;7.98;100.00;103255.50;5055447;28;60576;-85
2024/02/02 01:00:14;;;;;;;;;0.00;0.00;;;;;8.01;100.00;103252.13;5025783;28;45359;-86
2024/02/02 01:02:40;;;;;;;;;0.00;0.00;;;;;7.99;100.00;103248.63;5019533;28;45458;-85
2024/02/02 01:05:06;;;;;;;;;0.00;0.00;;;;;7.94;100.00;103244.19;5035555;28;45665;-85
2024/02/02 01:07:31;;;;;;;;;0.00;0.00;;;;;7.94;100.00;103241.59;5035989;28;45310;-86
2024/02/02 01:09:57;;;;;;;;;0.00;0.00;;;;;7.94;100.00;103251.09;5035969;28;45369;-85
2024/02/02 01:12:22;;;;;;;;;0.00;0.00;;;;;7.94;100.00;103253.69;5018886;28;55355;-85
2024/02/02 01:14:47;;;;;;;;;0.00;0.00;;;;;7.89;100.00;103258.78;5035404;28;46308;-86
2024/02/02 01:17:13;;;;;;;;;0.00;0.00;;;;;7.82;100.00;103243.03;5050884;28;45321;-85
2024/02/02 01:19:39;;;;;;;;;0.00;0.00;;;;;7.88;100.00;103263.94;5038741;28;45347;-86
2024/02/02 01:22:04;;;;;;;;;0.00;0.00;;;;;7.79;100.00;103251.63;5056706;28;45313;-85
2024/02/02 01:24:30;;;;;;;;;0.00;0.00;;;;;7.76;100.00;103261.91;5057257;28;46307;-85
2024/02/02 01:26:56;;;;;;;;;0.00;0.00;;;;;7.71;100.00;103261.84;5057824;28;45283;-85
2024/02/02 01:29:24;;;;;;;;;0.00;0.00;;;;;7.68;100.00;103253.09;5041167;28;45348;-86
2024/02/02 01:31:49;;;;;;;;;0.00;0.00;;;;;7.64;100.00;103259.06;5058862;28;45405;-85
2024/02/02 01:34:15;;;;;;;;;0.00;0.00;;;;;7.65;100.00;103255.63;5055305;28;57529;-86
2024/02/02 01:36:40;;;;;;;;;0.00;0.00;;;;;7.57;100.00;103252.84;5058210;28;45402;-85
2024/02/02 01:39:10;;;;;;;;;0.00;0.00;;;;;7.56;100.00;103259.75;5056594;28;56006;-85
2024/02/02 01:41:37;;;;;;;;;0.00;0.00;;;;;7.55;100.00;103251.94;5058053;28;45395;-85
2024/02/02 01:44:05;;;;;;;;;0.00;0.00;;;;;7.46;100.00;103242.22;5057627;28;45626;-85
2024/02/02 01:46:31;;;;;;;;;0.00;0.00;;;;;7.46;100.00;103252.56;5055697;28;45404;-86
2024/02/02 01:48:57;;;;;;;;;0.00;0.00;;;;;7.47;100.00;103248.28;5052494;28;45363;-85
2024/02/02 01:51:23;;;;;;;;;0.00;0.00;;;;;7.40;100.00;103238.63;5048533;28;45307;-85
2024/02/02 01:53:48;;;;;;;;;0.00;0.00;;;;;7.38;100.00;103251.53;5056501;28;45563;-85
2024/02/02 01:56:14;;;;;;;;;0.00;0.00;;;;;7.35;100.00;103251.44;5055386;28;45308;-86
2024/02/02 01:58:39;;;;;;;;;0.00;0.00;;;;;7.39;100.00;103257.56;5054969;28;51306;-85
2024/02/02 02:01:05;;;;;;;;;0.00;0.00;;;;;7.38;100.00;103263.63;5054570;28;55886;-86
2024/02/02 02:03:30;;;;;;;;;0.00;0.00;;;;;7.33;100.00;103260.91;5055499;28;45439;-85
2024/02/02 02:05:56;;;;;;;;;0.00;0.00;;;;;7.33;100.00;103266.06;5037911;28;45494;-85
2024/02/02 02:08:22;;;;;;;;;0.00;0.00;;;;;7.35;100.00;103267.00;5038267;28;45462;-85
2024/02/02 02:10:47;;;;;;;;;0.00;0.00;;;;;7.29;100.00;103269.44;5055069;28;45341;-85
2024/02/02 02:13:13;;;;;;;;;0.00;0.00;;;;;7.25;100.00;103263.28;5054787;28;56347;-85
2024/02/02 02:15:38;;;;;;;;;0.00;0.00;;;;;7.20;100.00;103249.34;5038026;28;45290;-85
2024/02/02 02:18:03;;;;;;;;;0.00;0.00;;;;;7.22;100.00;103260.63;5055028;28;46657;-85
2024/02/02 02:20:29;;;;;;;;;0.00;0.00;;;;;7.15;100.00;103254.44;5056208;28;45501;-85
2024/02/02 02:22:54;;;;;;;;;0.00;0.00;;;;;7.12;100.00;103249.16;5037862;28;47015;-85
2024/02/02 02:25:20;;;;;;;;;0.00;0.00;;;;;7.14;100.00;103256.97;5033851;28;45483;-85
2024/02/02 02:27:45;;;;;;;;;0.00;0.00;;;;;7.12;100.00;103254.34;5035143;28;45428;-85
2024/02/02 02:30:11;;;;;;;;;0.00;0.00;;;;;7.08;100.00;103243.88;5054487;28;45457;-85
2024/02/02 02:32:37;;;;;;;;;0.00;0.00;;;;;7.11;100.00;103246.53;5054637;28;46225;-85
2024/02/02 02:35:02;;;;;;;;;0.00;0.00;;;;;7.12;100.00;103254.34;5037978;28;45368;-85
2024/02/02 02:37:28;;;;;;;;;0.00;0.00;;;;;7.12;100.00;103256.06;5053940;28;45492;-85
2024/02/02 02:39:53;;;;;;;;;0.00;0.00;;;;;7.06;100.00;103248.13;5037685;28;53330;-85
2024/02/02 02:42:18;;;;;;;;;0.00;0.00;;;;;7.04;100.00;103247.19;5053515;28;45433;-85
2024/02/02 02:44:44;;;;;;;;;0.00;0.00;;;;;7.00;100.00;103242.78;5055250;28;53695;-85
2024/02/02 02:47:11;;;;;;;;;0.00;0.00;;;;;6.97;100.00;103247.03;5037552;28;54852;-85
2024/02/02 02:49:36;;;;;;;;;0.00;0.00;;;;;6.97;100.00;103257.41;5055005;28;45334;-85
2024/02/02 02:52:01;;;;;;;;;0.00;0.00;;;;;6.96;100.00;103239.22;5037471;28;47295;-85
2024/02/02 02:54:27;;;;;;;;;0.00;0.00;;;;;6.94;100.00;103227.97;5041806;28;45699;-84
2024/02/02 02:56:52;;;;;;;;;0.00;0.00;;;;;6.94;100.00;103230.56;5041755;28;45303;-85
2024/02/02 02:59:18;;;;;;;;;0.00;0.00;;;;;6.89;100.00;103224.38;5056558;28;54980;-85
2024/02/02 03:01:47;;;;;;;;;0.00;0.00;;;;;6.93;100.00;103231.41;5023468;28;48072;-85
2024/02/02 03:04:13;;;;;;;;;0.00;0.00;;;;;6.91;100.00;103225.28;5039149;28;45367;-85
2024/02/02 03:06:42;;;;;;;;;0.00;0.00;;;;;6.85;100.00;103209.59;5039290;28;45298;-85
2024/02/02 03:09:08;;;;;;;;;0.00;0.00;;;;;6.91;100.00;103222.69;5037951;28;47305;-85
2024/02/02 03:11:33;;;;;;;;;0.00;0.00;;;;;6.87;100.00;103218.28;5037826;28;46500;-85
2024/02/02 03:14:01;;;;;;;;;0.00;0.00;;;;;6.90;100.00;103220.97;5037187;28;59007;-85
2024/02/02 03:16:27;;;;;;;;;7.00;7.00;;;;;6.82;100.00;103213.00;5041446;28;53527;-85
2024/02/02 03:18:52;;;;;;;;;0.00;0.00;;;;;6.84;100.00;103223.41;5040774;28;55836;-85
2024/02/02 03:21:18;;;;;;;;;0.00;0.00;;;;;6.80;100.00;103212.06;5057607;28;45432;-85
2024/02/02 03:23:43;;;;;;;;;0.00;0.00;;;;;6.79;100.00;103216.34;5057052;28;56892;-85
2024/02/02 03:26:08;;;;;;;;;0.00;0.00;;;;;6.77;100.00;103212.84;5057376;28;61985;-85
2024/02/02 03:28:34;;;;;;;;;0.00;0.00;;;;;6.77;100.00;103212.84;5058666;28;45510;-85
2024/02/02 03:30:59;;;;;;;;;0.00;0.00;;;;;6.78;100.00;103211.16;5040377;28;64643;-85
2024/02/02 03:33:24;;;;;;;;;0.00;0.00;;;;;6.78;100.00;103206.00;5057503;28;45475;-85
2024/02/02 03:35:50;;;;;;;;;0.00;0.00;;;;;6.71;100.00;103191.13;5040471;28;57710;-84
2024/02/02 03:38:15;;;;;;;;;0.00;0.00;;;;;6.74;100.00;103205.03;5040581;28;57586;-85
2024/02/02 03:40:41;;;;;;;;;0.00;0.00;;;;;6.75;100.00;103198.13;5057043;28;47254;-86
2024/02/02 03:43:06;;;;;;;;;0.00;0.00;;;;;6.81;100.00;103210.34;5056823;28;54002;-86
2024/02/02 03:45:32;;;;;;;;;0.00;0.00;;;;;6.77;100.00;103210.25;5057043;28;50518;-85
2024/02/02 03:47:59;;;;;;;;;4.00;4.00;;;;;6.75;100.00;103201.59;5057121;28;45491;-85
2024/02/02 03:50:24;;;;;;;;;0.00;0.00;;;;;6.74;100.00;103201.53;5057500;28;47499;-85
2024/02/02 03:52:50;;;;;;;;;0.00;0.00;;;;;6.71;100.00;103202.34;5040250;28;45397;-85
2024/02/02 03:55:15;;;;;;;;;0.00;0.00;;;;;6.67;100.00;103203.09;5040359;28;45417;-85
2024/02/02 03:57:41;;;;;;;;;4.00;4.00;;;;;6.67;100.00;103200.53;5040254;28;45402;-85
2024/02/02 04:00:09;;;;;;;;;0.00;0.00;;;;;6.62;100.00;103190.88;5058260;28;46276;-85
2024/02/02 04:02:35;;;;;;;;;0.00;0.00;;;;;6.61;100.00;103189.13;5039861;28;45385;-85
2024/02/02 04:05:00;;;;;;;;;0.00;0.00;;;;;6.61;100.00;103197.75;5036577;28;45357;-85
2024/02/02 04:07:25;;;;;;;;;0.00;0.00;;;;;6.59;100.00;103202.00;5020307;28;56624;-85
2024/02/02 04:09:51;;;;;;;;;0.00;0.00;;;;;6.59;100.00;103215.84;5019217;28;54965;-86
2024/02/02 04:12:19;;;;;;;;;0.00;0.00;;;;;6.53;100.00;103194.09;5036253;28;45495;-85
2024/02/02 04:14:44;;;;;;;;;0.00;0.00;;;;;6.55;100.00;103189.81;5036588;28;51835;-85
2024/02/02 04:17:10;;;;;;;;;0.25;0.00;;;;;6.46;100.00;103179.22;5036917;28;45400;-85
2024/02/02 04:19:35;;;;;;;;;0.00;0.00;;;;;6.46;100.00;103174.91;5019681;28;48110;-85
2024/02/02 04:22:00;;;;;;;;;0.00;0.00;;;;;6.49;100.00;103185.38;5037292;28;59382;-85
2024/02/02 04:24:26;;;;;;;;;0.00;0.00;;;;;6.46;100.00;103180.09;5046773;28;46283;-85
2024/02/02 04:26:51;;;;;;;;;0.00;0.00;;;;;6.48;100.00;103188.81;5056447;28;45411;-85
2024/02/02 04:29:17;;;;;;;;;0.00;0.00;;;;;6.41;100.00;103171.34;5056728;28;45800;-85
2024/02/02 04:31:42;;;;;;;;;0.00;0.00;;;;;6.42;100.00;103177.41;5056458;28;45349;-85
2024/02/02 04:34:07;;;;;;;;;0.00;0.00;;;;;6.35;100.00;103169.47;5056745;28;45400;-86
2024/02/02 04:36:36;;;;;;;;;9.75;9.75;;;;;6.42;100.00;103188.63;5056732;28;45357;-85
2024/02/02 04:39:01;;;;;;;;;0.00;0.00;;;;;6.35;100.00;103166.00;5055568;28;47913;-85
2024/02/02 04:41:26;;;;;;;;;0.00;0.00;;;;;6.39;100.00;103184.25;5039400;28;45298;-86
2024/02/02 04:43:52;;;;;;;;;0.00;0.00;;;;;6.39;100.00;103191.13;5039329;28;50708;-86
2024/02/02 04:46:17;;;;;;;;;0.00;0.00;;;;;6.34;100.00;103185.81;5039039;28;60202;-85
2024/02/02 04:48:42;;;;;;;;;0.00;0.00;;;;;6.37;100.00;103203.13;5055362;28;63561;-85
2024/02/02 04:51:08;;;;;;;;;0.00;0.00;;;;;6.30;100.00;103184.00;5039011;28;54313;-85
2024/02/02 04:53:33;;;;;;;;;0.00;0.00;;;;;6.35;100.00;103203.09;5056489;28;45351;-86
2024/02/02 04:55:59;;;;;;;;;0.00;0.00;;;;;6.34;100.00;103208.22;5054792;28;45837;-85
2024/02/02 04:58:25;;;;;;;;;0.00;0.00;;;;;6.34;100.00;103200.47;5055917;28;46319;-85
2024/02/02 05:00:51;;;;;;;;;0.00;0.00;;;;;6.34;100.00;103205.66;5054879;28;45337;-86
2024/02/02 05:03:16;;;;;;;;;0.00;0.00;;;;;6.36;100.00;103212.59;5036098;28;45374;-85
2024/02/02 05:05:41;;;;;;;;;0.00;0.00;;;;;6.35;100.00;103208.28;5019178;28;49487;-86
2024/02/02 05:08:07;;;;;;;;;0.00;0.00;;;;;6.39;100.00;103204.94;5035508;28;58232;-85
2024/02/02 05:10:32;;;;;;;;;0.00;0.00;;;;;6.42;100.00;103219.66;5019171;28;61035;-85
2024/02/02 05:12:58;;;;;;;;;0.00;0.00;;;;;6.38;100.00;103210.94;5039036;28;45414;-85
2024/02/02 05:15:26;;;;;;;;;0.00;0.00;;;;;6.35;100.00;103207.38;5056496;28;45583;-86
2024/02/02 05:17:52;;;;;;;;;0.00;0.00;;;;;6.36;100.00;103211.72;5055837;28;48300;-85
2024/02/02 05:20:17;;;;;;;;;0.00;0.00;;;;;6.41;100.00;103217.94;5055801;28;45312;-85
2024/02/02 05:22:43;;;;;;;;;0.00;0.00;;;;;6.37;100.00;103209.19;5038842;28;45556;-85
2024/02/02 05:25:08;;;;;;;;;0.00;0.00;;;;;6.36;100.00;103211.72;5055787;28;45497;-85
2024/02/02 05:27:33;;;;;;;;;0.00;0.00;;;;;6.39;100.00;103224.78;5020436;28;47191;-86
2024/02/02 05:29:59;;;;;;;;;0.00;0.00;;;;;6.38;100.00;103228.19;5018888;28;45509;-85
2024/02/02 05:32:24;;;;;;;;;0.00;0.00;;;;;6.43;100.00;103228.31;5054660;28;45567;-85
2024/02/02 05:34:50;;;;;;;;;0.00;0.00;;;;;6.40;100.00;103229.09;5039020;28;45632;-85
2024/02/02 05:37:17;;;;;;;;;0.00;0.00;;;;;6.39;100.00;103229.94;5055222;28;61272;-85
2024/02/02 05:39:42;;;;;;;;;0.00;0.00;;;;;6.35;100.00;103228.97;5037443;28;45533;-86
2024/02/02 05:42:08;;;;;;;;;0.00;0.00;;;;;6.33;100.00;103229.75;5038514;28;45333;-85
2024/02/02 05:44:33;;;;;;;;;0.00;0.00;;;;;6.30;100.00;103221.91;5038710;28;45394;-86
2024/02/02 05:46:58;;;;;;;;;0.00;0.00;;;;;6.26;100.00;103223.53;5056679;28;45211;-85
2024/02/02 05:49:24;;;;;;;;;0.00;0.00;;;;;6.29;100.00;103231.38;5038303;28;58749;-85
2024/02/02 05:51:49;;;;;;;;;2.50;2.50;;;;;6.27;100.00;103233.03;5056683;28;45649;-85
2024/02/02 05:54:14;;;;;;;;;0.00;0.00;;;;;6.24;100.00;103229.47;5056315;28;45380;-85
2024/02/02 05:56:40;;;;;;;;;0.00;0.00;;;;;6.20;100.00;103225.94;5037542;28;47188;-85
2024/02/02 05:59:05;;;;;;;;;0.00;0.00;;;;;6.17;100.00;103210.34;5056590;28;45335;-85
2024/02/02 06:01:30;;;;;;;;;0.00;0.00;;;;;6.27;100.00;103221.81;5038075;28;57859;-85
2024/02/02 06:03:58;;;;;;;;;0.00;0.00;;;;;6.25;100.00;103216.59;5038017;28;56181;-86
2024/02/02 06:06:23;;;;;;;;;0.00;0.00;;;;;6.29;100.00;103214.97;5055415;28;47387;-85
2024/02/02 06:08:48;;;;;;;;;0.00;0.00;;;;;6.34;100.00;103229.78;5055679;28;54651;-86
2024/02/02 06:11:14;;;;;;;;;0.00;0.00;;;;;6.41;100.00;103225.69;5055381;28;45385;-85
2024/02/02 06:13:40;;;;;;;;;0.00;0.00;;;;;6.43;100.00;103231.78;5054410;28;45409;-85
2024/02/02 06:16:06;;;;;;;;;0.00;0.00;;;;;6.53;100.00;103236.34;5055276;28;47170;-85
2024/02/02 06:18:31;;;;;;;;;0.00;0.00;;;;;6.56;100.00;103231.28;5038357;28;45378;-86
2024/02/02 06:20:56;;;;;;;;;0.00;0.00;;;;;6.53;100.00;103225.13;5055423;28;45359;-85
2024/02/02 06:23:24;;;;;;;;;0.00;0.00;;;;;6.53;100.00;103228.59;5054211;28;58662;-86
2024/02/02 06:25:49;;;;;;;;;0.00;0.00;;;;;6.54;100.00;103232.94;5054924;28;47159;-81
2024/02/02 06:28:18;;;;;;;;;0.00;0.00;;;;;6.64;100.00;103247.00;5057765;28;58441;-85
2024/02/02 06:30:48;;;;;;;;;0.00;0.00;;;;;6.63;100.00;103242.69;5041857;28;45449;-86
2024/02/02 06:33:16;;;;;;;;;0.00;0.00;;;;;6.63;100.00;103240.09;5059236;28;46170;-85
2024/02/02 06:35:44;;;;;;;;;0.00;0.00;;;;;6.61;100.00;103233.09;5056685;28;46183;-89
2024/02/02 06:38:09;;;;;;;;;0.00;0.00;;;;;6.62;100.00;103232.28;5059414;28;45414;-90
2024/02/02 06:40:34;;;;;;;;;0.00;0.00;;;;;6.66;100.00;103234.13;5050046;28;45449;-88
2024/02/02 06:43:00;;;;;;;;;0.00;0.00;;;;;6.81;100.00;103237.13;5042855;28;45360;-90
2024/02/02 06:45:30;;;;;;;;;0.00;0.00;;;;;6.77;100.00;103227.53;5023523;28;47179;-93
2024/02/02 06:48:14;;;;;;;;;;;;;;;;;;;;;
2024/02/02 06:50:44;;;;;;;;;0.00;0.00;;;;;7.07;100.00;103230.03;5038823;28;68931;-86
2024/02/02 06:53:20;;;;;;;;;;;;;;;;;;;;;
2024/02/02 06:56:09;;;;;;;;;;;;;;;;;;;;;
2024/02/02 06:58:53;;;;;;;;;0.00;0.00;;;;;7.00;100.00;103222.06;5033612;28;73532;-91
2024/02/02 07:01:42;;;;;;;;;0.00;0.00;;;;;7.13;100.00;103235.38;5039231;28;45409;-94
2024/02/02 07:04:11;;;;;;;;;1.00;1.00;;;;;7.11;100.00;103233.56;5031021;28;45424;-91
2024/02/02 07:06:46;;;;;;;;;0.00;0.00;;;;;7.08;100.00;103223.16;5024871;28;47145;-92
2024/02/02 07:09:40;;;;;;;;;0.00;0.00;;;;;7.16;100.00;103244.94;5046154;28;45462;-92
2024/02/02 07:12:11;;;;;;;;;1.00;1.00;;;;;6.95;100.00;103242.69;5045832;28;45256;-86
2024/02/02 07:14:43;;;;;;;;;0.00;0.00;;;;;6.79;100.00;103239.66;5040993;28;45599;-86
2024/02/02 07:17:37;;;;;;;;;0.00;0.00;;;;;6.77;100.00;103232.69;5057992;28;48378;-88
2024/02/02 07:26:44;;;;;;;;;;;;;;;;;;;;;
2024/02/02 07:29:46;;;;;;;;;0.00;0.00;;;;;6.70;100.00;103244.59;5056248;28;75714;-88
2024/02/02 07:32:13;;;;;;;;;0.00;0.00;;;;;6.69;100.00;103253.19;5042116;28;45456;-88
2024/02/02 07:34:47;;;;;;;;;0.00;0.00;;;;;6.69;100.00;103248.03;5041563;28;45423;-89
2024/02/02 07:37:42;;;;;;;;;42.00;37.00;;;;;6.79;100.00;103259.50;5060134;28;45610;-89
2024/02/02 07:41:02;;;;;;;;;0.00;0.00;;;;;6.81;100.00;103262.13;5058503;28;46312;-84
2024/02/02 07:43:32;;;;;;;;;0.00;0.00;;;;;6.75;100.00;103268.88;4976528;28;45387;-86
2024/02/02 07:46:07;;;;;;;;;1.00;1.00;;;;;6.79;100.00;103272.44;4980430;28;45443;-86
2024/02/02 07:48:34;;;;;;;;;0.00;0.00;;;;;6.79;100.00;103268.13;4990613;28;45567;-87
2024/02/02 07:51:00;;;;;;;;;0.00;0.00;;;;;6.81;100.00;103275.06;4995309;28;46317;-87
2024/02/02 07:53:25;;;;;;;;;4.00;4.00;;;;;6.82;100.00;103271.66;4969803;28;45890;-82
2024/02/02 07:55:51;;;;;;;;;0.00;0.00;;;;;6.78;100.00;103266.41;4982368;28;45386;-85
2024/02/02 07:58:17;;;;;;;;;0.00;0.00;;;;;6.84;100.00;103278.63;4950541;28;45473;-85
2024/02/02 08:00:45;;;;;;;;;0.00;0.00;;;;;6.89;100.00;103274.47;4969030;28;46716;-86
2024/02/02 08:03:12;;;;;;;;;0.00;0.00;;;;;6.79;100.00;103256.91;4990439;28;55375;-86
2024/02/02 08:05:37;;;;;;;;;0.00;0.00;;;;;6.83;100.00;103261.31;4985023;28;45562;-85
2024/02/02 08:08:04;;;;;;;;;4.00;4.00;;;;;6.90;100.00;103268.44;4946341;28;45653;-84
2024/02/02 08:10:29;;;;;;;;;0.00;0.00;;;;;6.88;100.00;103257.16;4947842;28;47026;-85
2024/02/02 08:12:55;;;;;;;;;0.00;0.00;;;;;6.87;100.00;103252.84;4969086;28;45485;-87
2024/02/02 08:15:55;;;;;;;;;0.75;0.75;;;;;7.00;100.00;103268.69;5038230;28;45285;-87
2024/02/02 08:18:20;;;;;;;;;1.50;1.50;;;;;6.96;100.00;103255.66;5044217;28;45444;-88
2024/02/02 08:20:46;;;;;;;;;0.00;0.00;;;;;7.04;100.00;103261.03;5061820;28;46393;-89
2024/02/02 08:23:11;;;;;;;;;0.00;0.00;;;;;7.11;100.00;103267.25;5047931;28;45411;-86
2024/02/02 08:25:37;;;;;;;;;0.00;0.00;;;;;7.15;100.00;103262.19;5029769;28;45776;-88
2024/02/02 08:28:03;;;;;;;;;0.00;0.00;;;;;7.21;100.00;103258.88;5045912;28;45455;-88
2024/02/02 08:30:28;;;;;;;;;0.00;0.00;;;;;7.27;100.00;103259.03;5041653;28;46077;-89
2024/02/02 08:32:57;;;;;;;;;0.00;0.00;;;;;7.32;100.00;103272.97;5026167;28;45982;-89
2024/02/02 08:35:24;;;;;;;;;0.00;0.00;;;;;7.31;100.00;103259.97;5030858;28;45368;-88
2024/02/02 08:37:51;;;;;;;;;0.00;0.00;;;;;7.40;100.00;103272.31;5031670;28;45524;-89
2024/02/02 08:40:40;;;;;;;;;0.00;0.00;;;;;7.47;100.00;103266.44;5039156;28;47202;-88
2024/02/02 08:43:13;;;;;;;;;0.00;0.00;;;;;7.55;100.00;103276.13;5052289;28;45447;-89
2024/02/02 08:45:41;;;;;;;;;0.00;0.00;;;;;7.61;100.00;103270.22;5038919;28;45499;-89
2024/02/02 08:48:32;;;;;;;;;0.00;0.00;;;;;7.66;100.00;103271.22;5041341;28;45483;-88
2024/02/02 08:50:57;;;;;;;;;0.00;0.00;;;;;7.64;100.00;103265.13;5048676;28;45417;-88
2024/02/02 08:53:26;;;;;;;;;0.00;0.00;;;;;7.68;100.00;103272.13;5055501;28;45587;-89
2024/02/02 08:56:03;;;;;;;;;0.00;0.00;;;;;7.70;100.00;103262.66;5050596;28;45499;-88
2024/02/02 08:58:33;;;;;;;;;0.00;0.00;;;;;7.71;100.00;103269.59;5056796;28;45936;-89
2024/02/02 09:01:03;;;;;;;;;0.00;0.00;;;;;7.81;100.00;103281.06;5027812;28;47118;-88
2024/02/02 09:03:44;;;;;;;;;0.00;0.00;;;;;7.90;100.00;103276.09;5022174;28;45889;-88
2024/02/02 09:06:38;;;;;;;;;0.00;0.00;;;;;7.86;100.00;103266.50;5052484;28;45693;-89
2024/02/02 09:09:05;;;;;;;;;0.00;0.00;;;;;8.00;100.00;103282.34;5051845;28;45684;-88
2024/02/02 09:11:30;;;;;;;;;0.00;0.00;;;;;7.93;100.00;103273.56;5036767;28;47442;-89
2024/02/02 09:14:14;;;;;;;;;0.00;0.00;;;;;8.00;100.00;103277.16;5030698;28;45295;-87
2024/02/02 09:16:59;;;;;;;;;0.00;0.00;;;;;8.07;100.00;103275.59;5053785;28;45269;-87
2024/02/02 09:19:41;;;;;;;;;0.00;0.00;;;;;8.06;100.00;103279.91;5030072;28;55428;-87
2024/02/02 09:22:18;;;;;;;;;0.00;0.00;;;;;8.12;100.00;103286.97;5053122;28;45868;-91
2024/02/02 09:24:46;;;;;;;;;0.00;0.00;;;;;8.01;100.00;103263.38;5041576;28;45393;-92
2024/02/02 09:27:32;;;;;;;;;0.00;0.00;;;;;8.09;100.00;103279.97;5036674;28;45254;-90
2024/02/02 09:29:57;;;;;;;;;0.00;0.00;;;;;8.09;100.00;103281.69;5036555;28;45260;-91
2024/02/02 09:32:23;;;;;;;;;0.00;0.00;;;;;8.06;100.00;103266.03;5035723;28;47135;-92
2024/02/02 09:34:48;;;;;;;;;0.00;0.00;;;;;8.14;100.00;103278.34;5036174;28;45623;-90
2024/02/02 09:37:23;;;;;;;;;0.00;0.00;;;;;8.27;100.00;103276.91;5036509;28;45455;-90
2024/02/02 09:39:50;;;;;;;;;0.00;0.00;;;;;8.38;100.00;103291.84;5038153;28;45689;-91
2024/02/02 09:42:31;;;;;;;;;0.00;0.00;;;;;8.43;100.00;103298.00;5050783;28;47906;-90
2024/02/02 09:45:14;;;;;;;;;0.00;0.00;;;;;8.55;100.00;103298.28;5047041;28;45439;-92
2024/02/02 09:48:07;;;;;;;;;0.00;0.00;;;;;8.62;100.00;103307.94;5055358;28;45321;-91
2024/02/02 09:50:51;;;;;;;;;0.00;0.00;;;;;8.67;100.00;103301.13;5034522;28;45583;-89
2024/02/02 09:53:40;;;;;;;;;0.00;0.00;;;;;8.74;100.00;103316.81;5053262;28;45511;-92
2024/02/02 09:56:17;;;;;;;;;0.00;0.00;;;;;8.78;100.00;103308.25;5030533;28;45498;-91
2024/02/02 09:58:56;;;;;;;;;0.00;0.00;;;;;8.86;100.00;103315.34;5042479;28;45357;-92
2024/02/02 10:01:40;;;;;;;;;0.50;0.00;;;;;8.95;100.00;103311.16;5034196;28;45452;-91
2024/02/02 10:04:43;;;;;;;;;0.00;0.00;;;;;9.09;100.00;103302.78;5049752;28;47556;-90
2024/02/02 10:07:30;;;;;;;;;0.00;0.00;;;;;9.22;100.00;103297.81;5056832;28;45472;-91
2024/02/02 10:10:22;;;;;;;;;0.00;0.00;;;;;9.39;100.00;103296.38;5056392;28;45386;-91
2024/02/02 10:12:53;;;;;;;;;0.00;0.00;;;;;9.50;100.00;103300.03;5035780;28;45621;-90
2024/02/02 10:15:21;;;;;;;;;0.00;0.00;;;;;9.57;100.00;103297.53;5037330;28;48285;-90
2024/02/02 10:18:09;;;;;;;;;0.00;0.00;;;;;9.86;100.00;103287.56;5066720;28;45471;-91
2024/02/02 10:20:38;;;;;;;;;0.00;0.00;;;;;9.85;100.00;103307.50;5041146;28;45457;-92
2024/02/02 10:23:37;;;;;;;;;0.00;0.00;;;;;10.28;100.00;103302.91;5022942;28;45457;-90
2024/02/02 10:26:22;;;;;;;;;0.00;0.00;;;;;10.29;100.00;103306.41;5055406;28;45586;-90
2024/02/02 10:29:27;;;;;;;;;0.00;0.00;;;;;9.79;100.00;103291.81;5033520;28;45484;-87
2024/02/02 10:32:21;;;;;;;;;0.00;0.00;;;;;9.84;100.00;103289.28;5053929;28;45335;-87
2024/02/02 10:35:05;;;;;;;;;0.00;0.00;;;;;9.96;100.00;103289.47;5031793;28;45757;-88
2024/02/02 10:37:37;;;;;;;;;0.00;0.00;;;;;10.09;100.00;103290.53;5037122;28;47288;-88
2024/02/02 10:40:14;;;;;;;;;0.00;0.00;;;;;10.20;100.00;103301.94;5021776;28;45501;-87
2024/02/02 10:43:09;;;;;;;;;0.00;0.00;;;;;10.27;100.00;103298.56;5044731;28;45947;-88
2024/02/02 10:45:53;;;;;;;;;0.00;0.00;;;;;10.35;100.00;103287.44;5039664;28;45586;-88
2024/02/02 10:48:37;;;;;;;;;0.00;0.00;;;;;10.42;100.00;103295.34;5066434;28;47834;-89
2024/02/02 10:51:31;;;;;;;;;0.00;0.00;;;;;10.47;100.00;103292.78;5042562;28;45465;-88
2024/02/02 10:54:11;;;;;;;;;0.00;0.00;;;;;10.44;100.00;103298.81;5036846;28;45646;-89
2024/02/02 10:57:13;;;;;;;;;0.00;0.00;;;;;10.53;100.00;103305.00;5041939;28;45404;-88
2024/02/02 11:00:00;;;;;;;;;0.00;0.00;;;;;10.55;100.00;103306.78;5045733;28;46666;-87
2024/02/02 11:02:32;;;;;;;;;0.00;0.00;;;;;10.68;100.00;103301.69;5041237;28;45743;-86
2024/02/02 11:05:13;;;;;;;;;0.00;0.00;;;;;10.74;100.00;103307.00;5032152;28;45490;-87
2024/02/02 11:07:46;;;;;;;;;0.00;0.00;;;;;10.83;100.00;103307.97;5052696;28;45502;-88
2024/02/02 11:10:18;;;;;;;;;0.00;0.00;;;;;10.69;100.00;103298.25;5042253;28;45458;-91
2024/02/02 11:13:29;;;;;;;;;0.00;0.00;;;;;10.84;100.00;103317.50;5044373;28;45574;-86
2024/02/02 11:16:13;;;;;;;;;0.00;0.00;;;;;10.88;100.00;103308.00;5040651;28;45302;-90
2024/02/02 11:19:06;;;;;;;;;9.75;9.75;;;;;10.86;100.00;103301.91;5039448;28;45255;-89
2024/02/02 11:21:54;;;;;;;;;0.00;0.00;;;;;10.75;100.00;103300.91;5043143;28;45658;-90
2024/02/02 11:24:50;;;;;;;;;0.00;0.00;;;;;10.59;100.00;103274.69;5038868;28;45389;-94
2024/02/02 11:27:34;;;;;;;;;0.00;0.00;;;;;10.67;100.00;103289.53;5038232;28;45660;-90
2024/02/02 11:30:07;;;;;;;;;0.00;0.00;;;;;10.65;100.00;103279.97;5040821;28;45257;-93
2024/02/02 11:32:51;;;;;;;;;0.00;0.00;;;;;10.70;100.00;103290.44;5059118;28;45491;-88
2024/02/02 11:35:35;;;;;;;;;0.00;0.00;;;;;10.72;100.00;103287.88;5057210;28;45442;-93
2024/02/02 11:38:26;;;;;;;;;0.00;0.00;;;;;11.02;100.00;103285.56;5052709;28;45283;-87
2024/02/02 11:40:52;;;;;;;;;0.00;0.00;;;;;11.19;100.00;103279.66;5022138;28;45597;-87
2024/02/02 11:43:26;;;;;;;;;0.00;0.00;;;;;11.32;100.00;103289.31;5022228;28;47536;-87
2024/02/02 11:45:52;;;;;;;;;0.00;0.00;;;;;11.40;100.00;103281.56;5046423;28;45402;-86
2024/02/02 11:48:42;;;;;;;;;0.00;0.00;;;;;11.51;100.00;103276.44;5057207;28;45365;-88
2024/02/02 11:51:09;;;;;;;;;0.00;0.00;;;;;11.65;100.00;103273.94;5039223;28;45433;-89
2024/02/02 11:54:00;;;;;;;;;0.00;0.00;;;;;11.73;100.00;103267.03;5029862;28;47095;-88